Time;durP1;ratioP1;P1;durP2;ratioP2;P2;SDS_P1;SDS_P2;PMS_P1;PMS_P2;Temp;Humidity;BMP_temperature;BMP_pressure;BME280_temperature;BME280_humidity;BME280_pressure;Samples;Min_cycle;Max_cycle;Signal;HPM_P1;HPM_P2
2023/10/08 00:00:43;;;;;;;8.50;4.00;;;16.60;1.00;;;;;;5011809;28;20486;-72
2023/10/08 00:03:10;;;;;;;19.73;5.33;;;16.70;1.00;;;;;;5008674;28;20436;-72
2023/10/08 00:05:39;;;;;;;16.73;3.60;;;16.70;1.00;;;;;;5007798;28;20422;-72
2023/10/08 00:09:00;;;;;;;11.10;4.03;;;16.70;1.00;;;;;;5013251;28;20796;-80
2023/10/08 00:11:54;;;;;;;11.10;4.13;;;16.70;1.00;;;;;;5015632;28;20791;-80
2023/10/08 00:14:53;;;;;;;7.90;3.57;;;16.70;1.00;;;;;;5023368;28;20430;-80
2023/10/08 00:18:11;;;;;;;9.37;4.10;;;16.70;1.00;;;;;;5026052;28;20412;-80
2023/10/08 00:24:20;;;;;;;14.17;4.03;;;16.70;1.00;;;;;;4997125;28;20427;-80
2023/10/08 00:26:47;;;;;;;9.03;3.70;;;16.70;1.00;;;;;;4978174;28;20419;-80
2023/10/08 00:29:21;;;;;;;6.83;3.40;;;16.70;1.00;;;;;;4998023;28;20445;-80
2023/10/08 00:31:49;;;;;;;7.93;3.60;;;16.70;1.00;;;;;;5005966;28;20469;-80
2023/10/08 00:34:20;;;;;;;7.37;3.63;;;16.70;1.00;;;;;;4990832;28;20797;-80
2023/10/08 00:36:50;;;;;;;10.63;4.10;;;16.80;1.00;;;;;;4996699;28;20497;-80
2023/10/08 00:39:34;;;;;;;9.60;3.80;;;16.80;1.00;;;;;;5000285;28;20457;-81
2023/10/08 00:42:07;;;;;;;13.47;4.73;;;16.80;1.00;;;;;;4992413;28;20493;-80
2023/10/08 00:44:51;;;;;;;14.00;3.90;;;16.80;1.00;;;;;;5011062;28;20418;-80
2023/10/08 00:47:25;;;;;;;13.90;4.60;;;16.80;1.00;;;;;;4997976;28;20431;-80
2023/10/08 00:50:21;;;;;;;9.30;4.17;;;16.90;1.00;;;;;;4993342;28;20490;-80
2023/10/08 00:53:09;;;;;;;12.70;5.00;;;16.90;1.00;;;;;;4992777;28;20854;-80
2023/10/08 00:55:35;;;;;;;15.40;4.50;;;16.80;1.00;;;;;;4991847;28;20778;-72
2023/10/08 00:58:12;;;;;;;9.87;4.00;;;16.90;1.00;;;;;;4990263;28;20453;-72
2023/10/08 01:00:41;;;;;;;14.50;5.03;;;16.90;1.00;;;;;;5005122;28;20496;-72
2023/10/08 01:03:14;;;;;;;17.40;4.83;;;16.90;1.00;;;;;;5009586;28;20919;-72
2023/10/08 01:05:47;;;;;;;16.60;4.53;;;17.00;1.00;;;;;;5011446;28;20939;-72
2023/10/08 01:08:22;;;;;;;10.27;4.17;;;17.00;1.00;;;;;;5019956;28;20488;-72
2023/10/08 01:11:00;;;;;;;6.67;3.50;;;17.10;1.00;;;;;;5015033;28;20520;-80
2023/10/08 01:13:49;;;;;;;8.20;2.90;;;17.10;1.00;;;;;;5010206;28;20465;-81
2023/10/08 01:16:19;;;;;;;9.07;3.80;;;17.10;1.00;;;;;;5008590;28;20434;-80
2023/10/08 01:18:54;;;;;;;7.90;3.30;;;17.10;1.00;;;;;;5011063;28;20438;-80
2023/10/08 01:21:48;;;;;;;14.30;4.13;;;17.10;1.00;;;;;;5011318;28;20408;-80
2023/10/08 01:24:17;;;;;;;8.03;3.70;;;17.10;1.00;;;;;;5009724;28;20408;-80
2023/10/08 01:27:11;;;;;;;12.90;4.10;;;17.10;1.00;;;;;;5013898;28;20967;-79
2023/10/08 01:29:38;;;;;;;12.20;4.40;;;17.10;1.00;;;;;;5016707;28;20456;-80
2023/10/08 01:32:11;;;;;;;8.70;3.70;;;17.10;1.00;;;;;;5024095;28;20433;-80
2023/10/08 01:34:37;;;;;;;8.33;3.43;;;17.00;1.00;;;;;;4999283;28;20400;-80
2023/10/08 01:37:08;;;;;;;20.27;3.20;;;17.00;1.00;;;;;;5007997;28;20492;-80
2023/10/08 01:39:36;;;;;;;18.93;5.40;;;17.00;1.00;;;;;;5012569;28;20929;-80
2023/10/08 01:42:03;;;;;;;9.10;3.33;;;17.00;1.00;;;;;;5009580;28;20435;-80
2023/10/08 01:44:30;;;;;;;9.23;3.70;;;17.00;1.00;;;;;;5007604;28;20410;-80
2023/10/08 01:47:19;;;;;;;8.90;3.60;;;17.00;1.00;;;;;;5012897;28;20456;-80
2023/10/08 01:49:49;;;;;;;11.20;4.43;;;17.00;1.00;;;;;;5012592;28;20432;-80
2023/10/08 01:52:21;;;;;;;7.17;3.53;;;16.90;1.00;;;;;;5024505;28;20454;-79
2023/10/08 01:55:17;;;;;;;8.13;2.93;;;16.90;1.00;;;;;;5015770;28;20412;-80
2023/10/08 01:57:53;;;;;;;5.33;3.00;;;16.90;1.00;;;;;;5012787;28;20790;-80
2023/10/08 02:00:31;;;;;;;8.57;3.63;;;16.90;1.00;;;;;;5004350;28;20407;-80
2023/10/08 02:03:19;;;;;;;6.53;3.63;;;16.90;1.00;;;;;;5011911;28;20428;-80
2023/10/08 02:05:58;;;;;;;13.63;4.30;;;16.70;1.00;;;;;;5004095;28;20409;-80
2023/10/08 02:09:09;;;;;;;8.20;3.23;;;16.70;1.00;;;;;;5013657;28;20437;-80
2023/10/08 02:11:43;;;;;;;17.53;4.60;;;16.60;1.00;;;;;;5001653;28;20779;-72
2023/10/08 02:14:09;;;;;;;19.70;5.50;;;16.50;1.00;;;;;;5011125;28;20482;-71
2023/10/08 02:16:34;;;;;;;30.27;6.47;;;16.50;1.00;;;;;;5009044;28;20905;-72
2023/10/08 02:19:00;;;;;;;14.73;4.80;;;16.50;1.00;;;;;;5024832;28;20404;-72
2023/10/08 02:21:27;;;;;;;25.63;6.43;;;16.50;1.00;;;;;;5005026;28;20179;-72
2023/10/08 02:23:52;;;;;;;12.30;4.73;;;16.50;1.00;;;;;;5009598;28;20206;-72
2023/10/08 02:26:43;;;;;;;7.10;3.57;;;16.50;1.00;;;;;;5013932;28;20409;-80
2023/10/08 02:29:29;;;;;;;8.43;3.40;;;16.50;1.00;;;;;;5002759;28;20176;-80
2023/10/08 02:32:24;;;;;;;6.43;3.40;;;16.50;1.00;;;;;;5012088;28;20441;-80
2023/10/08 02:38:17;;;;;;;11.43;4.17;;;16.30;1.00;;;;;;5000570;28;20450;-80
2023/10/08 02:40:50;;;;;;;19.33;5.60;;;16.30;1.00;;;;;;5020826;28;20457;-72
2023/10/08 02:43:17;;;;;;;28.57;6.17;;;16.30;1.00;;;;;;5011739;28;20438;-72
2023/10/08 02:45:49;;;;;;;17.70;5.20;;;16.30;1.00;;;;;;5015287;28;20437;-72
2023/10/08 02:48:16;;;;;;;16.47;5.07;;;16.30;1.00;;;;;;5021199;28;20430;-72
2023/10/08 02:50:44;;;;;;;16.03;4.80;;;16.30;1.00;;;;;;5015292;28;20476;-72
2023/10/08 02:53:17;;;;;;;13.37;3.90;;;16.20;1.00;;;;;;5022173;28;20893;-72
2023/10/08 02:55:55;;;;;;;10.40;4.13;;;16.20;1.00;;;;;;5012014;28;20404;-72
2023/10/08 02:58:20;;;;;;;15.80;5.27;;;16.20;1.00;;;;;;5028475;28;20828;-72
2023/10/08 03:00:47;;;;;;;28.33;7.17;;;16.20;1.00;;;;;;5016022;28;20426;-72
2023/10/08 03:03:18;;;;;;;13.43;4.73;;;16.20;1.00;;;;;;5004384;28;20283;-72
2023/10/08 03:05:48;;;;;;;14.37;4.27;;;16.30;1.00;;;;;;5011702;28;20438;-72
2023/10/08 03:08:21;;;;;;;11.60;4.43;;;16.30;1.00;;;;;;5007954;28;20802;-71
2023/10/08 03:10:55;;;;;;;17.07;5.27;;;16.20;1.00;;;;;;5011535;28;20524;-72
2023/10/08 03:13:26;;;;;;;16.33;5.40;;;16.20;1.00;;;;;;5015145;28;20522;-72
2023/10/08 03:16:08;;;;;;;23.80;5.80;;;16.20;1.00;;;;;;5011641;28;20411;-72
2023/10/08 03:18:41;;;;;;;27.80;5.77;;;16.10;1.00;;;;;;5025894;28;20387;-71
2023/10/08 03:21:43;;;;;;;14.00;4.30;;;16.10;1.00;;;;;;5012985;28;20483;-72
2023/10/08 03:24:29;;;;;;;12.40;4.07;;;16.00;1.00;;;;;;5017159;28;20412;-72
2023/10/08 03:27:13;;;;;;;7.70;3.13;;;16.10;1.00;;;;;;5021918;28;20435;-82
2023/10/08 03:29:43;;;;;;;6.47;3.73;;;16.00;1.00;;;;;;5017523;28;20436;-80
2023/10/08 03:32:15;;;;;;;6.67;3.70;;;15.90;1.00;;;;;;5021103;28;20924;-81
2023/10/08 03:34:46;;;;;;;5.93;3.50;;;15.90;1.00;;;;;;5025122;28;20417;-80
2023/10/08 03:40:43;;;;;;;14.20;4.23;;;15.90;1.00;;;;;;5018291;28;20430;-72
2023/10/08 03:43:33;;;;;;;16.40;4.30;;;15.80;1.00;;;;;;5002060;28;20400;-72
2023/10/08 03:46:05;;;;;;;22.83;5.87;;;15.70;1.00;;;;;;5009942;28;20400;-72
2023/10/08 03:48:38;;;;;;;12.10;4.60;;;15.60;1.00;;;;;;5008261;28;20438;-72
2023/10/08 03:51:11;;;;;;;8.67;3.80;;;15.60;1.00;;;;;;5008035;28;20784;-72
2023/10/08 03:53:49;;;;;;;34.07;6.27;;;15.50;1.00;;;;;;5015252;28;20456;-72
2023/10/08 03:56:19;;;;;;;17.93;5.20;;;15.50;1.00;;;;;;5014744;28;20392;-72
2023/10/08 03:58:46;;;;;;;29.30;6.73;;;15.40;1.00;;;;;;4998194;28;20398;-71
2023/10/08 04:01:18;;;;;;;15.70;4.87;;;15.40;1.00;;;;;;5012850;28;20999;-72
2023/10/08 04:06:21;;;;;;;17.43;4.30;;;15.30;1.00;;;;;;5014553;28;20434;-72
2023/10/08 04:08:58;;;;;;;14.83;4.93;;;15.30;1.00;;;;;;5008696;28;20421;-72
2023/10/08 04:11:35;;;;;;;21.30;5.90;;;15.30;1.00;;;;;;5005615;28;20407;-82
2023/10/08 04:14:04;;;;;;;15.73;4.87;;;15.40;1.00;;;;;;5013409;28;20427;-82
2023/10/08 04:16:37;;;;;;;7.00;4.43;;;15.40;1.00;;;;;;5013272;28;20960;-81
2023/10/08 04:19:07;;;;;;;10.40;4.27;;;15.50;1.00;;;;;;5014451;28;20925;-81
2023/10/08 04:22:01;;;;;;;10.53;4.30;;;15.50;1.00;;;;;;5017577;28;20488;-82
2023/10/08 04:27:49;;;;;;;9.57;3.83;;;15.50;1.00;;;;;;5032006;28;20953;-82
2023/10/08 04:30:33;;;;;;;6.87;3.30;;;15.60;1.00;;;;;;5015369;28;20419;-82
2023/10/08 04:33:33;;;;;;;10.30;3.90;;;15.60;1.00;;;;;;5019717;28;20456;-82
2023/10/08 04:36:44;;;;;;;9.37;3.90;;;15.70;1.00;;;;;;5020542;28;20434;-82
2023/10/08 04:39:14;;;;;;;13.77;3.70;;;15.80;1.00;;;;;;5018608;28;20439;-82
2023/10/08 04:45:02;;;;;;;24.27;6.00;;;15.70;1.00;;;;;;5021730;28;20406;-81
2023/10/08 04:51:12;;;;;;;10.27;4.00;;;15.70;1.00;;;;;;5018101;28;20423;-82
2023/10/08 04:57:16;;;;;;;11.00;4.40;;;15.70;1.00;;;;;;5027981;28;20441;-82
2023/10/08 05:03:43;;;;;;;18.33;5.70;;;15.80;1.00;;;;;;5009345;28;20459;-81
2023/10/08 05:09:38;;;;;;;6.80;3.40;;;15.80;1.00;;;;;;5013582;28;20407;-81
2023/10/08 05:21:50;;;;;;;20.40;4.53;;;15.60;1.00;;;;;;5013341;28;20437;-81
2023/10/08 05:24:51;;;;;;;12.23;4.63;;;15.50;1.00;;;;;;5013445;28;20437;-81
2023/10/08 05:41:04;;;;;;;13.03;3.60;;;15.40;1.00;;;;;;4991881;28;20772;-82
2023/10/08 05:53:01;;;;;;;7.17;3.67;;;15.40;1.00;;;;;;4991847;28;20443;-81
2023/10/08 05:59:31;;;;;;;8.50;4.10;;;15.50;1.00;;;;;;4990551;28;20396;-81
2023/10/08 06:03:03;;;;;;;14.97;4.83;;;15.50;1.00;;;;;;4999671;28;20817;-81
2023/10/08 06:05:33;;;;;;;6.40;3.80;;;15.50;1.00;;;;;;4978798;28;20416;-81
2023/10/08 06:08:12;;;;;;;8.70;3.87;;;15.60;1.00;;;;;;5009866;28;20966;-81
2023/10/08 06:14:01;;;;;;;11.33;4.60;;;15.70;1.00;;;;;;5010559;28;20495;-81
2023/10/08 06:16:44;;;;;;;10.50;4.60;;;15.70;1.00;;;;;;5014566;28;21034;-81
2023/10/08 06:23:00;;;;;;;25.10;6.30;;;15.80;1.00;;;;;;5020756;28;20398;-81
2023/10/08 06:25:46;;;;;;;12.80;4.80;;;16.00;1.00;;;;;;5020848;28;20455;-81
2023/10/08 06:28:38;;;;;;;23.63;5.80;;;16.10;1.00;;;;;;5013242;28;20427;-81
2023/10/08 06:31:16;;;;;;;22.80;5.73;;;16.10;1.00;;;;;;5025449;28;20459;-81
2023/10/08 06:33:50;;;;;;;10.03;3.60;;;16.20;1.00;;;;;;5032645;28;20426;-81
2023/10/08 06:36:42;;;;;;;5.30;3.10;;;16.30;1.00;;;;;;5015808;28;20415;-81
2023/10/08 06:39:18;;;;;;;7.73;3.70;;;16.30;1.00;;;;;;4992824;28;20472;-82
2023/10/08 06:42:20;;;;;;;13.50;4.40;;;16.40;1.00;;;;;;5026731;28;20431;-82
2023/10/08 06:44:48;;;;;;;14.53;3.97;;;16.50;1.00;;;;;;5011529;28;20407;-82
2023/10/08 06:47:15;;;;;;;21.37;6.03;;;16.50;1.00;;;;;;5005447;28;20426;-82
2023/10/08 06:49:43;;;;;;;12.00;3.73;;;16.60;1.00;;;;;;5009924;28;20428;-82
2023/10/08 06:52:12;;;;;;;10.67;4.40;;;16.60;1.00;;;;;;5017324;28;20406;-81
2023/10/08 06:54:43;;;;;;;14.60;3.83;;;16.70;1.00;;;;;;5007763;28;20412;-82
2023/10/08 06:57:20;;;;;;;5.10;3.27;;;16.70;1.00;;;;;;5012567;28;20433;-81
2023/10/08 06:59:48;;;;;;;5.70;3.40;;;16.70;1.00;;;;;;5029298;28;20409;-82
2023/10/08 07:02:17;;;;;;;11.37;3.40;;;16.70;1.00;;;;;;5016282;28;20400;-81
2023/10/08 07:04:50;;;;;;;7.77;4.23;;;16.70;1.00;;;;;;5013238;28;20462;-81
2023/10/08 07:07:19;;;;;;;20.90;5.87;;;16.70;1.00;;;;;;5005556;28;20755;-81
2023/10/08 07:09:51;;;;;;;12.67;4.23;;;16.70;1.00;;;;;;5018752;28;20432;-81
2023/10/08 07:12:19;;;;;;;9.20;4.13;;;16.70;1.00;;;;;;5017907;28;20749;-81
2023/10/08 07:14:51;;;;;;;7.57;3.93;;;16.80;1.00;;;;;;5019463;28;21048;-82
2023/10/08 07:17:19;;;;;;;8.90;3.33;;;16.90;1.00;;;;;;5017301;28;20440;-82
2023/10/08 07:19:50;;;;;;;10.93;4.10;;;16.90;1.00;;;;;;5027254;28;20441;-81
2023/10/08 07:22:22;;;;;;;23.00;5.57;;;17.00;1.00;;;;;;5006059;28;20764;-82
2023/10/08 07:24:50;;;;;;;8.47;3.60;;;17.10;1.00;;;;;;5022638;28;20429;-81
2023/10/08 07:27:29;;;;;;;12.80;4.00;;;17.00;1.00;;;;;;5022735;28;20415;-81
2023/10/08 07:30:26;;;;;;;15.57;4.33;;;17.00;1.00;;;;;;5004981;28;20931;-81
2023/10/08 07:33:17;;;;;;;11.33;3.90;;;17.10;1.00;;;;;;5006090;28;21033;-82
2023/10/08 07:35:57;;;;;;;13.90;4.23;;;17.20;1.00;;;;;;5031810;28;20459;-82
2023/10/08 07:38:31;;;;;;;17.37;4.80;;;17.30;1.00;;;;;;5010592;28;20405;-82
2023/10/08 07:40:56;;;;;;;11.50;4.20;;;17.40;1.00;;;;;;5009178;28;20417;-81
2023/10/08 07:43:25;;;;;;;6.73;3.30;;;17.50;1.00;;;;;;5011267;28;20992;-81
2023/10/08 07:46:01;;;;;;;12.77;4.20;;;17.70;1.00;;;;;;5012263;28;20262;-81
2023/10/08 07:48:31;;;;;;;20.90;5.47;;;17.70;1.00;;;;;;5010527;28;20416;-81
2023/10/08 07:51:07;;;;;;;8.20;3.53;;;17.70;1.00;;;;;;5015957;28;20442;-81
2023/10/08 07:53:37;;;;;;;14.20;4.43;;;17.70;1.00;;;;;;5017490;28;20472;-81
2023/10/08 07:56:08;;;;;;;13.73;4.03;;;17.80;1.00;;;;;;5007124;28;20914;-81
2023/10/08 07:58:49;;;;;;;5.47;3.63;;;17.80;1.00;;;;;;5011925;28;20462;-82
2023/10/08 08:02:01;;;;;;;8.70;3.67;;;17.70;1.00;;;;;;5005908;28;20417;-80
2023/10/08 08:04:33;;;;;;;12.20;4.00;;;17.80;1.00;;;;;;5001002;28;20771;-82
2023/10/08 08:07:01;;;;;;;6.77;3.60;;;17.50;1.00;;;;;;5025686;28;21019;-81
2023/10/08 08:10:01;;;;;;;20.83;4.20;;;17.50;1.00;;;;;;5012415;28;20451;-80
2023/10/08 08:12:37;;;;;;;17.67;5.17;;;17.60;1.00;;;;;;5011643;28;20422;-81
2023/10/08 08:15:16;;;;;;;11.17;4.40;;;17.70;1.00;;;;;;5012945;28;20438;-81
2023/10/08 08:17:55;;;;;;;7.23;3.53;;;17.70;1.00;;;;;;5024109;28;20457;-81
2023/10/08 08:23:50;;;;;;;9.67;4.10;;;18.00;1.00;;;;;;5025944;28;20796;-81
2023/10/08 08:26:39;;;;;;;8.37;3.73;;;18.20;1.00;;;;;;5020218;28;20452;-82
2023/10/08 08:29:24;;;;;;;8.60;4.23;;;18.30;1.00;;;;;;5022737;28;20884;-82
2023/10/08 08:38:39;;;;;;;14.33;4.27;;;18.80;1.00;;;;;;5012715;28;20430;-82
2023/10/08 08:41:17;;;;;;;10.20;3.77;;;19.00;1.00;;;;;;5010409;28;20439;-81
2023/10/08 08:43:47;;;;;;;8.40;3.53;;;19.00;1.00;;;;;;5031532;28;20435;-81
2023/10/08 08:50:12;;;;;;;7.97;3.50;;;19.20;1.00;;;;;;5002476;28;20923;-81
2023/10/08 08:53:00;;;;;;;13.93;4.10;;;19.40;1.00;;;;;;5006463;28;20496;-81
2023/10/08 08:55:33;;;;;;;8.20;3.80;;;19.40;1.00;;;;;;5009952;28;20436;-81
2023/10/08 08:58:13;;;;;;;6.10;3.43;;;19.50;1.00;;;;;;5017194;28;20741;-81
2023/10/08 09:01:24;;;;;;;8.90;3.60;;;19.70;1.00;;;;;;5017802;28;20429;-81
2023/10/08 09:04:28;;;;;;;8.93;4.03;;;19.90;1.00;;;;;;5023928;28;20434;-81
2023/10/08 09:07:21;;;;;;;8.77;3.70;;;19.80;1.00;;;;;;5021543;28;20415;-82
2023/10/08 09:09:49;;;;;;;16.93;4.80;;;19.80;1.00;;;;;;5018348;28;20442;-82
2023/10/08 09:12:21;;;;;;;6.20;3.30;;;19.70;1.00;;;;;;5014137;28;20983;-82
2023/10/08 09:14:49;;;;;;;6.77;3.73;;;19.80;1.00;;;;;;5018003;28;20436;-80
2023/10/08 09:17:23;;;;;;;14.90;4.30;;;19.80;1.00;;;;;;5024835;28;20868;-81
2023/10/08 09:20:20;;;;;;;10.43;4.10;;;19.90;1.00;;;;;;5015428;28;20460;-80
2023/10/08 09:23:30;;;;;;;8.90;4.00;;;19.80;1.00;;;;;;5021448;28;20440;-85
2023/10/08 09:26:16;;;;;;;9.03;3.80;;;19.70;1.00;;;;;;5016362;28;20413;-82
2023/10/08 09:32:05;;;;;;;9.03;3.83;;;20.10;1.00;;;;;;5017236;28;20512;-81
2023/10/08 09:34:52;;;;;;;13.37;4.23;;;20.00;1.00;;;;;;5015743;28;20445;-81
2023/10/08 09:37:22;;;;;;;7.60;3.73;;;19.90;1.00;;;;;;5027718;28;20413;-80
2023/10/08 09:39:52;;;;;;;10.57;3.47;;;19.90;1.00;;;;;;5022105;28;20419;-81
2023/10/08 09:42:22;;;;;;;14.00;3.90;;;19.90;1.00;;;;;;5019234;28;20445;-81
2023/10/08 09:44:49;;;;;;;14.33;4.43;;;19.90;1.00;;;;;;5022499;28;20440;-80
2023/10/08 09:47:24;;;;;;;7.17;3.70;;;19.80;1.00;;;;;;5015821;28;20539;-81
2023/10/08 09:53:35;;;;;;;7.43;2.97;;;20.00;1.00;;;;;;5004545;28;20503;-81
2023/10/08 09:59:49;;;;;;;6.63;3.60;;;20.50;1.00;;;;;;5030131;28;20401;-82
2023/10/08 10:02:32;;;;;;;10.87;4.50;;;20.90;1.00;;;;;;5026783;28;20417;-81
2023/10/08 10:05:01;;;;;;;6.33;2.73;;;21.00;1.00;;;;;;5009279;28;20431;-81
2023/10/08 10:21:13;;;;;;;5.77;3.40;;;21.00;1.00;;;;;;5009882;28;20401;-81
2023/10/08 10:27:43;;;;;;;9.90;3.37;;;21.10;1.00;;;;;;5013112;28;20410;-81
2023/10/08 10:36:56;;;;;;;5.90;3.23;;;21.20;1.00;;;;;;5032759;28;20405;-81
2023/10/08 10:43:40;;;;;;;10.77;3.73;;;20.90;1.00;;;;;;5014948;28;20434;-81
2023/10/08 10:46:43;;;;;;;9.43;3.30;;;21.00;1.00;;;;;;5025553;28;20437;-81
2023/10/08 10:49:21;;;;;;;10.10;3.60;;;21.00;1.00;;;;;;5016722;28;20514;-81
2023/10/08 10:52:05;;;;;;;13.50;3.40;;;21.10;1.00;;;;;;5033513;28;20777;-82
2023/10/08 10:58:11;;;;;;;9.67;4.03;;;20.80;1.00;;;;;;4995382;28;20399;-81
2023/10/08 11:01:24;;;;;;;10.60;4.27;;;21.10;1.00;;;;;;5019214;28;20462;-82
2023/10/08 11:03:57;;;;;;;16.23;4.90;;;21.20;1.00;;;;;;5012610;28;20432;-81
2023/10/08 11:10:38;;;;;;;8.97;4.20;;;21.70;1.00;;;;;;5009240;28;20480;-82
2023/10/08 11:13:39;;;;;;;12.20;3.50;;;22.10;1.00;;;;;;5012865;28;20554;-84
2023/10/08 11:16:13;;;;;;;14.90;3.80;;;22.50;1.00;;;;;;5014050;28;20409;-87
2023/10/08 11:18:51;;;;;;;23.73;5.80;;;22.70;1.00;;;;;;5012656;28;20417;-83
2023/10/08 11:21:24;;;;;;;24.83;5.40;;;22.60;1.00;;;;;;5012415;28;20514;-82
2023/10/08 11:24:33;;;;;;;14.57;4.70;;;22.70;1.00;;;;;;5011436;28;20438;-84
2023/10/08 11:27:37;;;;;;;11.63;4.10;;;22.80;1.00;;;;;;4988009;28;20530;-82
2023/10/08 11:30:51;;;;;;;17.73;4.80;;;22.90;1.00;;;;;;4988075;28;20618;-82
2023/10/08 11:33:38;;;;;;;9.33;4.00;;;22.40;1.00;;;;;;4979286;28;20495;-82
2023/10/08 11:36:27;;;;;;;15.43;4.07;;;22.30;1.00;;;;;;4991236;28;20824;-82
2023/10/08 11:39:06;;;;;;;14.77;4.23;;;22.60;1.00;;;;;;5006010;28;20473;-82
2023/10/08 11:48:38;;;;;;;13.07;4.17;;;22.50;1.00;;;;;;4947955;29;21869;-80
2023/10/08 11:51:51;;;;;;;9.63;3.77;;;22.20;1.00;;;;;;4939734;29;20445;-79
2023/10/08 11:57:45;;;;;;;11.97;4.23;;;22.30;1.00;;;;;;4971583;28;20538;-81
2023/10/08 12:03:50;;;;;;;14.93;4.03;;;22.20;1.00;;;;;;4972157;28;20513;-81
2023/10/08 12:10:34;;;;;;;10.27;3.80;;;22.00;1.00;;;;;;4975232;28;20449;-82
2023/10/08 12:13:23;;;;;;;19.33;5.57;;;22.10;1.00;;;;;;4975415;28;20476;-81
2023/10/08 12:16:14;;;;;;;7.00;3.40;;;22.00;1.00;;;;;;4974402;28;20472;-82
2023/10/08 12:25:55;;;;;;;10.47;4.23;;;22.20;1.00;;;;;;5014011;28;20443;-81
2023/10/08 12:28:27;;;;;;;11.27;3.93;;;22.40;1.00;;;;;;5012967;28;20444;-81
2023/10/08 12:34:15;;;;;;;7.90;3.63;;;22.30;1.00;;;;;;5003567;28;20467;-81
2023/10/08 12:43:52;;;;;;;12.00;3.67;;;22.20;1.00;;;;;;5016912;28;20945;-81
2023/10/08 12:46:30;;;;;;;9.80;3.93;;;22.50;1.00;;;;;;5010176;28;20971;-81
2023/10/08 12:48:56;;;;;;;16.87;4.10;;;22.40;1.00;;;;;;5007822;28;20491;-81
2023/10/08 12:51:41;;;;;;;10.63;4.00;;;22.60;1.00;;;;;;5019914;28;20514;-81
2023/10/08 12:57:32;;;;;;;13.20;4.63;;;22.70;1.00;;;;;;5015495;28;20425;-82
2023/10/08 13:00:08;;;;;;;6.37;3.60;;;23.10;1.00;;;;;;5005863;28;20477;-81
2023/10/08 13:02:39;;;;;;;11.97;4.30;;;23.50;1.00;;;;;;5013075;28;20511;-82
2023/10/08 13:05:15;;;;;;;14.73;4.63;;;23.70;1.00;;;;;;5012280;28;20421;-81
2023/10/08 13:14:24;;;;;;;11.90;4.40;;;24.10;1.00;;;;;;5011686;28;20470;-80
2023/10/08 13:17:13;;;;;;;14.40;3.57;;;24.20;1.00;;;;;;5017747;28;20435;-81
2023/10/08 13:26:58;;;;;;;13.63;3.50;;;23.80;1.00;;;;;;5007163;28;20394;-83
2023/10/08 13:36:31;;;;;;;11.47;4.80;;;23.60;1.00;;;;;;5028040;28;20396;-83
2023/10/08 13:39:01;;;;;;;21.83;4.90;;;23.80;1.00;;;;;;4995419;28;20395;-82
2023/10/08 13:42:07;;;;;;;14.83;4.70;;;23.90;1.00;;;;;;5028392;28;20426;-82
2023/10/08 13:44:34;;;;;;;10.93;4.40;;;24.20;1.00;;;;;;5033570;28;20441;-83
2023/10/08 13:53:59;;;;;;;9.90;4.13;;;24.60;1.00;;;;;;5007394;28;20480;-83
2023/10/08 13:56:29;;;;;;;13.40;5.00;;;24.70;1.00;;;;;;5013068;28;20473;-84
2023/10/08 13:59:31;;;;;;;13.57;4.37;;;24.70;1.00;;;;;;5017294;28;20802;-83
2023/10/08 14:02:14;;;;;;;10.80;3.87;;;24.80;1.00;;;;;;5013265;28;20426;-83
2023/10/08 14:04:57;;;;;;;15.93;4.47;;;24.70;1.00;;;;;;5026161;28;20475;-81
2023/10/08 14:07:27;;;;;;;14.20;4.00;;;24.70;1.00;;;;;;5027561;28;20958;-82
2023/10/08 14:16:43;;;;;;;9.03;4.03;;;24.70;1.00;;;;;;5009216;28;20439;-82
2023/10/08 14:22:32;;;;;;;16.83;4.53;;;24.40;1.00;;;;;;5024422;28;20801;-82
2023/10/08 14:28:40;;;;;;;13.47;4.20;;;24.40;1.00;;;;;;5022871;28;20407;-81
2023/10/08 14:31:08;;;;;;;12.60;4.80;;;24.50;1.00;;;;;;5020920;28;20434;-82
2023/10/08 14:53:31;;;;;;;11.70;4.70;;;24.10;1.00;;;;;;5006797;28;20466;-82
2023/10/08 15:02:55;;;;;;;19.23;5.03;;;24.30;1.00;;;;;;5008167;28;20420;-81
2023/10/08 15:06:13;;;;;;;12.33;3.90;;;24.00;1.00;;;;;;5010616;28;20420;-81
2023/10/08 15:08:57;;;;;;;15.33;3.73;;;24.10;1.00;;;;;;5019050;28;20414;-81
2023/10/08 15:18:08;;;;;;;15.93;5.37;;;23.70;1.00;;;;;;5031196;28;20396;-81
2023/10/08 15:20:55;;;;;;;10.27;4.03;;;23.60;1.00;;;;;;5007716;28;20416;-81
2023/10/08 15:23:27;;;;;;;12.00;3.77;;;23.40;1.00;;;;;;5001810;28;20461;-80
2023/10/08 15:26:19;;;;;;;16.60;4.10;;;23.40;1.00;;;;;;5016657;28;20419;-81
2023/10/08 15:32:39;;;;;;;15.80;4.47;;;23.30;1.00;;;;;;5011099;28;20447;-81
2023/10/08 15:35:19;;;;;;;10.50;3.63;;;23.20;1.00;;;;;;5017841;28;20422;-80
2023/10/08 15:41:13;;;;;;;26.80;16.30;;;23.10;1.00;;;;;;5019399;28;20769;-81
2023/10/08 15:47:31;;;;;;;15.13;5.70;;;22.70;1.00;;;;;;5013605;28;20453;-82
2023/10/08 15:50:10;;;;;;;18.70;6.50;;;22.40;1.00;;;;;;5017021;28;20852;-81
2023/10/08 15:52:38;;;;;;;39.50;9.63;;;22.30;1.00;;;;;;5016148;28;20487;-81
2023/10/08 15:55:08;;;;;;;19.53;8.33;;;22.20;1.00;;;;;;5011246;28;20781;-81
2023/10/08 16:01:28;;;;;;;15.73;4.60;;;22.00;1.00;;;;;;5019664;28;20944;-82
2023/10/08 16:03:55;;;;;;;7.80;3.90;;;21.80;1.00;;;;;;5023400;28;20501;-81
2023/10/08 16:06:25;;;;;;;9.53;3.50;;;21.70;1.00;;;;;;5019379;28;20421;-80
2023/10/08 16:09:43;;;;;;;9.73;4.37;;;21.60;1.00;;;;;;5009905;28;20446;-81
2023/10/08 16:16:10;;;;;;;16.93;4.67;;;21.40;1.00;;;;;;5014018;28;20439;-82
2023/10/08 16:18:49;;;;;;;11.27;4.53;;;21.10;1.00;;;;;;5018196;28;20423;-81
2023/10/08 16:21:21;;;;;;;17.67;5.53;;;21.00;1.00;;;;;;5017270;28;20468;-80
2023/10/08 16:23:49;;;;;;;16.20;4.87;;;20.90;1.00;;;;;;5019403;28;20442;-82
2023/10/08 16:26:20;;;;;;;11.77;4.40;;;20.70;1.00;;;;;;5034089;28;20430;-82
2023/10/08 16:28:49;;;;;;;14.37;4.60;;;20.60;1.00;;;;;;5028783;28;20421;-81
2023/10/08 16:31:20;;;;;;;25.63;4.57;;;20.40;1.00;;;;;;5016207;28;20979;-81
2023/10/08 16:33:49;;;;;;;12.00;4.30;;;20.20;1.00;;;;;;5001634;28;20466;-81
2023/10/08 16:36:19;;;;;;;8.40;4.60;;;20.10;1.00;;;;;;5021336;28;20443;-81
2023/10/08 16:38:53;;;;;;;10.13;4.53;;;20.00;1.00;;;;;;5004183;28;20439;-81
2023/10/08 16:48:03;;;;;;;21.27;4.53;;;19.50;1.00;;;;;;5014623;28;20435;-82
2023/10/08 16:54:18;;;;;;;7.30;4.37;;;19.20;1.00;;;;;;5013683;28;20986;-82
2023/10/08 16:57:37;;;;;;;6.97;3.30;;;19.10;1.00;;;;;;5015660;28;20428;-83
2023/10/08 17:03:43;;;;;;;13.13;4.00;;;18.90;1.00;;;;;;4996938;28;20424;-82
2023/10/08 17:06:31;;;;;;;11.73;3.70;;;18.80;1.00;;;;;;5017053;28;20442;-81
2023/10/08 17:16:19;;;;;;;17.80;4.57;;;18.40;1.00;;;;;;5017469;28;20456;-81
2023/10/08 17:18:49;;;;;;;6.03;2.80;;;18.30;1.00;;;;;;5033133;28;20415;-81
2023/10/08 17:21:28;;;;;;;6.13;2.77;;;18.20;1.00;;;;;;5020471;28;20439;-80
2023/10/08 17:24:25;;;;;;;12.83;3.30;;;18.20;1.00;;;;;;5014014;28;20431;-81
2023/10/08 17:27:46;;;;;;;12.90;3.53;;;18.10;1.00;;;;;;5017973;28;20454;-82
2023/10/08 17:30:49;;;;;;;9.70;3.63;;;18.00;1.00;;;;;;5020489;28;20791;-81
2023/10/08 17:40:25;;;;;;;10.37;3.80;;;17.70;1.00;;;;;;5015273;28;20469;-81
2023/10/08 17:42:56;;;;;;;22.40;5.73;;;17.50;1.00;;;;;;5007253;28;20569;-79
2023/10/08 17:48:55;;;;;;;9.53;3.10;;;17.30;1.00;;;;;;4994823;28;20521;-81
2023/10/08 17:51:25;;;;;;;6.83;3.30;;;17.20;1.00;;;;;;5004759;28;20446;-81
2023/10/08 17:53:55;;;;;;;19.63;4.53;;;17.10;1.00;;;;;;5031718;28;20807;-81
2023/10/08 17:56:32;;;;;;;12.17;3.20;;;17.00;1.00;;;;;;5014499;28;20873;-81
2023/10/08 18:02:40;;;;;;;7.00;2.87;;;16.80;1.00;;;;;;5005276;28;20453;-82
2023/10/08 18:05:15;;;;;;;5.27;3.00;;;16.70;1.00;;;;;;5024397;28;20406;-82
2023/10/08 18:08:11;;;;;;;9.70;3.77;;;16.60;1.00;;;;;;5027726;28;20411;-82
2023/10/08 18:10:38;;;;;;;6.87;3.10;;;16.60;1.00;;;;;;5015404;28;20402;-81
2023/10/08 18:16:26;;;;;;;8.53;3.33;;;16.40;1.00;;;;;;4999353;28;20377;-81
2023/10/08 18:19:01;;;;;;;16.70;4.03;;;16.40;1.00;;;;;;5016066;28;20484;-81
2023/10/08 18:21:28;;;;;;;19.63;5.33;;;16.30;1.00;;;;;;5012323;28;20814;-81
2023/10/08 18:24:01;;;;;;;15.90;3.87;;;16.20;1.00;;;;;;5013228;28;20908;-80
2023/10/08 18:26:32;;;;;;;7.10;3.40;;;16.20;1.00;;;;;;5024742;28;20399;-80
2023/10/08 18:28:58;;;;;;;12.13;4.67;;;16.20;1.00;;;;;;5013104;28;20385;-79
2023/10/08 18:31:31;;;;;;;10.13;3.67;;;16.30;1.00;;;;;;5018662;28;20395;-79
2023/10/08 18:37:38;;;;;;;12.30;4.00;;;16.30;1.00;;;;;;5008132;28;20466;-82
2023/10/08 18:40:15;;;;;;;16.03;4.37;;;16.30;1.00;;;;;;5010789;28;20411;-79
2023/10/08 18:46:04;;;;;;;9.00;3.27;;;16.20;1.00;;;;;;5009542;28;20371;-80
2023/10/08 18:49:22;;;;;;;13.60;3.17;;;16.20;1.00;;;;;;5015803;28;20517;-79
2023/10/08 18:52:08;;;;;;;10.97;3.53;;;16.20;1.00;;;;;;5017657;28;20429;-80
2023/10/08 18:54:39;;;;;;;11.03;3.70;;;16.20;1.00;;;;;;5009197;28;20433;-80
2023/10/08 19:00:32;;;;;;;13.57;4.20;;;16.10;1.00;;;;;;5022401;28;20419;-80
2023/10/08 19:03:13;;;;;;;10.90;3.13;;;16.10;1.00;;;;;;5025055;28;20393;-80
2023/10/08 19:13:01;;;;;;;11.00;2.77;;;16.00;1.00;;;;;;5011615;28;20400;-80